createdAt,value
2023-05-08T04:00:30.132Z,85.54
2023-05-08T04:01:31.133Z,85.64
2023-05-08T04:02:31.155Z,85.75
2023-05-08T04:03:31.129Z,85.89
2023-05-08T04:04:31.037Z,85.95
2023-05-08T04:05:31.048Z,85.99
2023-05-08T04:06:38.840Z,85.99
2023-05-08T04:07:31.064Z,86.10
2023-05-08T04:08:31.007Z,86.10
2023-05-08T04:09:30.982Z,86.20
2023-05-08T04:10:30.984Z,86.20
2023-05-08T04:11:30.956Z,86.30
2023-05-08T04:12:30.952Z,86.20
2023-05-08T04:13:31.136Z,86.30
2023-05-08T04:14:30.953Z,86.30
2023-05-08T04:15:30.933Z,86.41
2023-05-08T04:16:30.943Z,86.30
2023-05-08T04:17:30.921Z,86.05
2023-05-08T04:18:30.928Z,86.05
2023-05-08T04:19:30.887Z,85.95
2023-05-08T04:20:30.883Z,85.95
2023-05-08T04:21:32.088Z,85.75
2023-05-08T04:22:30.843Z,85.75
2023-05-08T04:23:30.845Z,85.54
2023-05-08T04:24:30.825Z,85.44
2023-05-08T04:25:30.840Z,85.54
2023-05-08T04:26:30.833Z,85.44
2023-05-08T04:27:30.791Z,85.13
2023-05-08T04:28:30.790Z,85.13
2023-05-08T04:29:30.765Z,85.23
2023-05-08T04:30:30.785Z,85.23
2023-05-08T04:31:30.796Z,85.13
2023-05-08T04:32:30.762Z,84.92
2023-05-08T04:33:30.796Z,84.61
2023-05-08T04:34:30.709Z,84.51
2023-05-08T04:35:30.703Z,84.27
2023-05-08T04:36:30.706Z,83.75
2023-05-08T04:37:30.685Z,83.64
2023-05-08T04:38:30.686Z,83.44
2023-05-08T04:39:30.656Z,83.44
2023-05-08T04:40:30.648Z,83.44
2023-05-08T04:41:30.660Z,82.92
2023-05-08T04:42:30.629Z,82.92
2023-05-08T04:43:30.634Z,82.82
2023-05-08T04:44:30.646Z,82.51
2023-05-08T04:45:30.601Z,82.30
2023-05-08T04:46:30.779Z,82.20
2023-05-08T04:47:30.836Z,81.96
2023-05-08T04:48:30.581Z,81.54
2023-05-08T04:49:30.688Z,81.58
2023-05-08T04:50:30.542Z,81.44
2023-05-08T04:51:30.544Z,81.44
2023-05-08T04:52:30.529Z,81.44
2023-05-08T04:53:30.529Z,81.34
2023-05-08T04:54:30.500Z,80.93
2023-05-08T04:55:30.508Z,80.93
2023-05-08T04:56:30.517Z,80.93
2023-05-08T04:57:30.455Z,80.93
2023-05-08T04:58:30.455Z,80.58
2023-05-08T04:59:30.444Z,80.16
2023-05-08T05:00:30.437Z,80.16
2023-05-08T05:01:30.464Z,79.96
2023-05-08T05:02:30.468Z,79.34
2023-05-08T05:03:30.469Z,78.69
2023-05-08T05:04:30.388Z,78.48
2023-05-08T05:05:30.378Z,78.38
2023-05-08T05:06:30.373Z,78.52
2023-05-08T05:07:30.360Z,78.28
2023-05-08T05:08:30.376Z,78.17
2023-05-08T05:09:30.350Z,78.28
2023-05-08T05:10:30.314Z,78.28
2023-05-08T05:11:30.340Z,78.17
2023-05-08T05:12:30.296Z,78.28
2023-05-08T05:13:30.314Z,77.66
2023-05-08T05:14:30.281Z,77.66
2023-05-08T05:15:30.264Z,77.45
2023-05-08T05:16:30.274Z,77.25
2023-05-08T05:17:30.311Z,77.45
2023-05-08T05:18:30.228Z,77.45
2023-05-08T05:19:30.218Z,77.31
2023-05-08T05:20:30.205Z,77.11
2023-05-08T05:21:30.201Z,77.00
2023-05-08T05:22:30.182Z,76.70
2023-05-08T05:23:30.172Z,76.70
2023-05-08T05:24:30.163Z,76.79
2023-05-08T05:25:30.155Z,76.49
2023-05-08T05:26:30.158Z,76.59
2023-05-08T05:27:30.132Z,76.18
2023-05-08T05:28:30.119Z,76.04
2023-05-08T05:29:30.107Z,75.73
2023-05-08T05:30:30.099Z,75.63
2023-05-08T05:31:30.195Z,75.63
2023-05-08T05:32:30.113Z,75.73
2023-05-08T05:33:30.067Z,75.52
2023-05-08T05:34:30.062Z,75.63
2023-05-08T05:35:30.050Z,75.42
2023-05-08T05:36:30.038Z,75.32
2023-05-08T05:37:30.026Z,75.42
2023-05-08T05:38:30.007Z,75.32
2023-05-08T05:39:30.002Z,74.70
2023-05-08T05:40:30.010Z,74.80
2023-05-08T05:41:29.979Z,74.36
2023-05-08T05:42:29.963Z,73.85
2023-05-08T05:43:29.952Z,73.95
2023-05-08T05:44:29.944Z,73.95
2023-05-08T05:45:32.573Z,73.95
2023-05-08T05:46:29.970Z,74.15
2023-05-08T05:47:29.933Z,73.85
2023-05-08T05:48:29.893Z,73.33
2023-05-08T05:49:29.886Z,73.44
2023-05-08T05:50:29.871Z,73.02
2023-05-08T05:51:29.875Z,73.33
2023-05-08T05:52:29.849Z,73.33
2023-05-08T05:53:29.847Z,73.40
2023-05-08T05:54:29.824Z,72.89
2023-05-08T05:55:29.888Z,72.78
2023-05-08T05:56:29.816Z,72.58
2023-05-08T05:57:29.819Z,72.58
2023-05-08T05:58:29.780Z,72.38
2023-05-08T05:59:29.785Z,72.27
2023-05-08T06:00:29.780Z,72.03
2023-05-08T06:01:29.783Z,72.03
2023-05-08T06:02:29.841Z,72.13
2023-05-08T06:03:29.861Z,71.83
2023-05-08T06:04:29.756Z,71.51
2023-05-08T06:05:29.713Z,71.48
2023-05-08T06:06:29.723Z,71.38
2023-05-08T06:07:29.693Z,70.49
2023-05-08T06:08:29.667Z,70.87
2023-05-08T06:09:29.676Z,70.46
2023-05-08T06:10:29.657Z,70.36
2023-05-08T06:11:29.642Z,70.46
2023-05-08T06:12:29.640Z,70.39
2023-05-08T06:13:29.698Z,70.39
2023-05-08T06:14:29.607Z,70.36
2023-05-08T06:15:29.592Z,70.15
2023-05-08T06:16:29.597Z,69.84
2023-05-08T06:17:29.630Z,69.94
2023-05-08T06:18:29.576Z,69.50
2023-05-08T06:19:29.562Z,69.29
2023-05-08T06:20:29.539Z,68.88
2023-05-08T06:21:29.543Z,68.68
2023-05-08T06:22:29.533Z,68.37
2023-05-08T06:23:29.514Z,68.37
2023-05-08T06:24:29.490Z,68.24
2023-05-08T06:25:29.489Z,68.34
2023-05-08T06:26:29.485Z,67.52
2023-05-08T06:27:29.485Z,66.46
2023-05-08T06:28:29.467Z,65.64
2023-05-08T06:29:29.442Z,64.69
2023-05-08T06:30:29.440Z,64.01
2023-05-08T06:31:29.568Z,63.70
2023-05-08T06:32:29.450Z,63.06
2023-05-08T06:33:29.396Z,62.42
2023-05-08T06:34:29.391Z,62.26
2023-05-08T06:35:29.373Z,61.31
2023-05-08T06:36:29.376Z,60.39
2023-05-08T06:37:29.363Z,59.23
2023-05-08T06:38:29.340Z,59.06
2023-05-08T06:39:29.350Z,58.55
2023-05-08T06:40:29.325Z,58.78
2023-05-08T06:41:29.321Z,59.19
2023-05-08T06:42:29.337Z,60.03
2023-05-08T06:43:29.288Z,59.80
2023-05-08T06:44:29.270Z,58.78
2023-05-08T06:45:29.269Z,59.12
2023-05-08T06:46:29.288Z,58.98
2023-05-08T06:47:29.324Z,58.48
2023-05-08T06:48:29.515Z,58.58
2023-05-08T06:49:29.271Z,58.78
2023-05-08T06:50:29.252Z,58.48
2023-05-08T06:51:29.202Z,58.34
2023-05-08T06:52:29.207Z,58.11
2023-05-08T06:53:29.226Z,57.93
2023-05-08T06:54:29.189Z,58.11
2023-05-08T06:55:29.207Z,58.01
2023-05-08T06:56:29.166Z,57.40
2023-05-08T06:57:29.165Z,56.89
2023-05-08T06:58:29.120Z,56.86
2023-05-08T06:59:29.118Z,56.02
2023-05-08T07:00:29.147Z,55.30
2023-05-08T07:01:29.139Z,55.07
2023-05-08T07:02:29.124Z,54.54
2023-05-08T07:03:29.091Z,54.24
2023-05-08T07:04:32.038Z,53.34
2023-05-08T07:05:29.071Z,54.08
2023-05-08T07:06:29.038Z,53.19
2023-05-08T07:07:29.033Z,53.19
2023-05-08T07:08:29.005Z,53.57
2023-05-08T07:09:29.005Z,53.14
2023-05-08T07:10:28.985Z,52.62
2023-05-08T07:11:29.006Z,51.58
2023-05-08T07:12:28.982Z,50.59
2023-05-08T07:13:29.119Z,50.87
2023-05-08T07:14:28.947Z,50.69
2023-05-08T07:15:29.077Z,50.41
2023-05-08T07:16:29.029Z,50.10
2023-05-08T07:17:28.972Z,51.12
2023-05-08T07:18:28.892Z,50.99
2023-05-08T07:19:28.907Z,50.46
2023-05-08T07:20:28.873Z,50.34
2023-05-08T07:21:28.881Z,50.01
2023-05-08T07:22:28.927Z,49.40
2023-05-08T07:23:28.863Z,50.01
2023-05-08T07:24:28.832Z,49.29
2023-05-08T07:25:28.852Z,48.99
2023-05-08T07:26:28.808Z,48.05
2023-05-08T07:27:28.805Z,48.18
2023-05-08T07:28:28.835Z,48.25
2023-05-08T07:29:28.783Z,47.97
2023-05-08T07:30:28.777Z,48.42
2023-05-08T07:31:28.792Z,48.63
2023-05-08T07:32:28.785Z,48.40
2023-05-08T07:33:28.740Z,48.50
2023-05-08T07:34:29.134Z,49.29
2023-05-08T07:35:28.718Z,48.46
2023-05-08T07:36:28.698Z,48.43
2023-05-08T07:37:28.702Z,47.06
2023-05-08T07:38:28.687Z,46.15
2023-05-08T07:39:28.669Z,46.45
2023-05-08T07:40:28.674Z,46.28
2023-05-08T07:41:28.710Z,46.68
2023-05-08T07:42:28.638Z,47.44
2023-05-08T07:43:28.649Z,48.56
2023-05-08T07:44:28.651Z,47.62
2023-05-08T07:45:28.596Z,47.42
2023-05-08T07:46:28.682Z,47.11
2023-05-08T07:47:28.620Z,47.24
2023-05-08T07:48:28.563Z,47.74
2023-05-08T07:49:28.558Z,47.74
2023-05-08T07:50:28.545Z,47.95
2023-05-08T07:51:28.543Z,47.82
2023-05-08T07:52:28.564Z,48.18
2023-05-08T07:53:28.506Z,48.40
2023-05-08T07:54:28.493Z,48.79
2023-05-08T07:55:28.489Z,48.48
2023-05-08T07:56:28.481Z,48.15
2023-05-08T07:57:28.478Z,47.24
2023-05-08T07:58:28.477Z,46.72
2023-05-08T07:59:28.439Z,46.52
2023-05-08T08:00:28.441Z,46.42
2023-05-08T08:01:28.439Z,47.05
2023-05-08T08:02:28.537Z,47.69
2023-05-08T08:03:28.511Z,48.73
2023-05-08T08:04:28.468Z,49.04
2023-05-08T08:05:28.383Z,47.46
2023-05-08T08:06:28.366Z,47.36
2023-05-08T08:07:28.351Z,47.44
2023-05-08T08:08:28.354Z,47.31
2023-05-08T08:09:28.341Z,47.29
2023-05-08T08:10:28.348Z,46.48
2023-05-08T08:11:28.309Z,45.95
2023-05-08T08:12:28.305Z,45.24
2023-05-08T08:13:28.349Z,45.87
2023-05-08T08:14:28.283Z,45.56
2023-05-08T08:15:28.270Z,46.70
2023-05-08T08:16:28.293Z,47.01
2023-05-08T08:17:29.110Z,47.26
2023-05-08T08:18:28.239Z,47.74
2023-05-08T08:19:28.217Z,46.60
2023-05-08T08:20:28.242Z,45.26
2023-05-08T08:21:28.219Z,45.59
2023-05-08T08:22:28.229Z,45.91
2023-05-08T08:23:28.177Z,45.91
2023-05-08T08:24:28.163Z,46.24
2023-05-08T08:25:28.181Z,46.75
2023-05-08T08:26:28.139Z,46.14
2023-05-08T08:27:28.131Z,46.01
2023-05-08T08:28:28.110Z,46.52
2023-05-08T08:29:28.114Z,45.10
2023-05-08T08:30:28.122Z,44.79
2023-05-08T08:31:28.120Z,44.08
2023-05-08T08:32:28.093Z,43.87
2023-05-08T08:33:28.064Z,44.26
2023-05-08T08:34:28.060Z,43.55
2023-05-08T08:35:28.048Z,43.12
2023-05-08T08:36:28.051Z,43.02
2023-05-08T08:37:28.034Z,42.90
2023-05-08T08:38:28.004Z,42.59
2023-05-08T08:39:28.006Z,43.10
2023-05-08T08:40:28.009Z,42.98
2023-05-08T08:41:28.075Z,41.96
2023-05-08T08:42:27.976Z,41.86
2023-05-08T08:43:27.965Z,42.37
2023-05-08T08:44:27.957Z,41.35
2023-05-08T08:45:27.929Z,40.56
2023-05-08T08:46:28.018Z,41.27
2023-05-08T08:47:27.996Z,41.27
2023-05-08T08:48:27.888Z,41.99
2023-05-08T08:49:27.891Z,41.47
2023-05-08T08:50:27.884Z,41.78
2023-05-08T08:51:28.204Z,41.27
2023-05-08T08:52:27.868Z,41.15
2023-05-08T08:53:27.853Z,40.66
2023-05-08T08:54:27.849Z,40.97
2023-05-08T08:55:27.832Z,40.77
2023-05-08T08:56:27.822Z,40.66
2023-05-08T08:57:27.802Z,40.44
2023-05-08T08:58:27.799Z,40.66
2023-05-08T08:59:27.799Z,40.56
2023-05-08T09:00:27.767Z,40.86
2023-05-08T09:01:27.761Z,40.84
2023-05-08T09:02:27.893Z,41.03
2023-05-08T09:03:27.871Z,40.93
2023-05-08T09:04:27.724Z,40.93
2023-05-08T09:05:27.718Z,40.72
2023-05-08T09:06:27.890Z,41.03
2023-05-08T09:07:27.689Z,41.54
2023-05-08T09:08:27.854Z,41.52
2023-05-08T09:09:27.673Z,42.13
2023-05-08T09:10:27.701Z,42.02
2023-05-08T09:11:27.673Z,41.21
2023-05-08T09:12:27.645Z,41.21
2023-05-08T09:13:27.653Z,41.42
2023-05-08T09:14:27.676Z,41.70
2023-05-08T09:15:27.592Z,41.38
2023-05-08T09:16:27.641Z,40.97
2023-05-08T09:17:27.616Z,40.79
2023-05-08T09:18:27.559Z,40.48
2023-05-08T09:19:28.969Z,40.91
2023-05-08T09:20:27.573Z,41.21
2023-05-08T09:21:27.529Z,41.09
2023-05-08T09:22:27.567Z,40.87
2023-05-08T09:23:27.515Z,40.55
2023-05-08T09:24:28.565Z,40.56
2023-05-08T09:25:27.492Z,41.28
2023-05-08T09:26:27.511Z,41.07
2023-05-08T09:27:27.471Z,41.38
2023-05-08T09:28:27.461Z,41.05
2023-05-08T09:29:27.438Z,40.55
2023-05-08T09:30:27.444Z,40.77
2023-05-08T09:31:27.432Z,41.30
2023-05-08T09:32:27.441Z,40.59
2023-05-08T09:33:27.406Z,40.56
2023-05-08T09:34:27.389Z,39.86
2023-05-08T09:35:27.370Z,39.94
2023-05-08T09:36:27.373Z,39.33
2023-05-08T09:37:27.378Z,38.82
2023-05-08T09:38:27.341Z,39.15
2023-05-08T09:39:27.318Z,39.35
2023-05-08T09:40:27.333Z,39.87
2023-05-08T09:41:27.304Z,40.79
2023-05-08T09:42:27.300Z,40.77
2023-05-08T09:43:27.290Z,40.55
2023-05-08T09:44:27.274Z,39.72
2023-05-08T09:45:27.345Z,40.04
2023-05-08T09:46:27.337Z,40.45
2023-05-08T09:47:27.278Z,41.16
2023-05-08T09:48:27.237Z,40.85
2023-05-08T09:49:27.238Z,39.82
2023-05-08T09:50:27.221Z,39.01
2023-05-08T09:51:27.208Z,38.59
2023-05-08T09:52:27.190Z,38.48
2023-05-08T09:53:27.189Z,37.98
2023-05-08T09:54:27.180Z,37.27
2023-05-08T09:55:27.164Z,37.16
2023-05-08T09:56:27.159Z,36.98
2023-05-08T09:57:27.148Z,36.88
2023-05-08T09:58:27.163Z,37.07
2023-05-08T09:59:27.138Z,36.46
2023-05-08T10:00:27.156Z,36.25
2023-05-08T10:01:27.141Z,36.56
2023-05-08T10:02:27.149Z,36.34
2023-05-08T10:03:27.096Z,36.46
2023-05-08T10:04:27.061Z,36.74
2023-05-08T10:05:27.122Z,36.52
2023-05-08T10:06:27.063Z,35.13
2023-05-08T10:07:27.040Z,35.61
2023-05-08T10:08:27.014Z,35.21
2023-05-08T10:09:32.805Z,35.30
2023-05-08T10:10:26.998Z,34.17
2023-05-08T10:11:26.987Z,35.09
2023-05-08T10:12:26.980Z,34.59
2023-05-08T10:13:27.046Z,34.79
2023-05-08T10:14:26.990Z,35.94
2023-05-08T10:15:26.929Z,35.94
2023-05-08T10:16:26.970Z,35.63
2023-05-08T10:17:26.940Z,35.61
2023-05-08T10:18:26.908Z,35.43
2023-05-08T10:19:26.921Z,35.94
2023-05-08T10:20:26.890Z,35.61
2023-05-08T10:21:26.852Z,35.21
2023-05-08T10:22:26.862Z,35.30
2023-05-08T10:23:26.859Z,35.38
2023-05-08T10:24:26.845Z,34.95
2023-05-08T10:25:26.864Z,33.24
2023-05-08T10:26:26.858Z,33.75
2023-05-08T10:27:26.800Z,33.84
2023-05-08T10:28:26.805Z,33.95
2023-05-08T10:29:26.781Z,33.95
2023-05-08T10:30:26.810Z,33.44
2023-05-08T10:31:26.827Z,32.84
2023-05-08T10:32:26.777Z,33.07
2023-05-08T10:33:27.292Z,34.00
2023-05-08T10:34:26.737Z,34.70
2023-05-08T10:35:26.722Z,34.70
2023-05-08T10:36:28.109Z,35.39
2023-05-08T10:37:26.681Z,34.28
2023-05-08T10:38:26.705Z,34.60
2023-05-08T10:39:26.683Z,34.09
2023-05-08T10:40:26.688Z,34.38
2023-05-08T10:41:26.655Z,34.37
2023-05-08T10:42:26.636Z,34.35
2023-05-08T10:43:26.613Z,34.67
2023-05-08T10:44:26.614Z,34.86
2023-05-08T10:45:26.608Z,34.35
2023-05-08T10:46:26.681Z,34.25
2023-05-08T10:47:26.618Z,34.23
2023-05-08T10:48:26.579Z,34.23
2023-05-08T10:49:26.552Z,33.72
2023-05-08T10:50:26.571Z,33.63
2023-05-08T10:51:26.559Z,33.61
2023-05-08T10:52:26.550Z,33.43
2023-05-08T10:53:26.521Z,33.12
2023-05-08T10:54:27.933Z,33.63
2023-05-08T10:55:26.478Z,33.22
2023-05-08T10:56:26.550Z,33.43
2023-05-08T10:57:26.467Z,34.03
2023-05-08T10:58:26.454Z,33.73
2023-05-08T10:59:26.455Z,33.33
2023-05-08T11:00:26.447Z,33.51
2023-05-08T11:01:26.532Z,33.19
2023-05-08T11:02:26.508Z,32.27
2023-05-08T11:03:31.988Z,32.46
2023-05-08T11:04:26.452Z,32.46
2023-05-08T11:05:26.357Z,32.15
2023-05-08T11:06:26.397Z,32.76
2023-05-08T11:07:26.359Z,32.69
2023-05-08T11:08:26.368Z,33.07
2023-05-08T11:09:26.338Z,32.79
2023-05-08T11:10:26.321Z,33.63
2023-05-08T11:11:26.297Z,34.00
2023-05-08T11:12:26.351Z,32.87
2023-05-08T11:13:26.381Z,32.47
2023-05-08T11:14:26.307Z,33.29
2023-05-08T11:15:26.278Z,33.70
2023-05-08T11:16:26.308Z,33.67
2023-05-08T11:17:26.326Z,33.95
2023-05-08T11:18:28.091Z,32.43
2023-05-08T11:19:26.238Z,31.93
2023-05-08T11:20:26.203Z,32.12
2023-05-08T11:21:26.208Z,32.66
2023-05-08T11:22:26.213Z,33.38
2023-05-08T11:23:26.172Z,33.70
2023-05-08T11:24:26.159Z,33.19
2023-05-08T11:25:26.149Z,33.28
2023-05-08T11:26:26.158Z,33.26
2023-05-08T11:27:26.148Z,32.35
2023-05-08T11:28:26.115Z,32.67
2023-05-08T11:29:26.108Z,32.89
2023-05-08T11:30:26.105Z,32.69
2023-05-08T11:31:26.098Z,31.99
2023-05-08T11:32:26.119Z,32.70
2023-05-08T11:33:26.081Z,32.27
2023-05-08T11:34:26.048Z,31.87
2023-05-08T11:35:26.029Z,32.39
2023-05-08T11:36:26.051Z,31.96
2023-05-08T11:37:26.036Z,31.26
2023-05-08T11:38:26.034Z,31.87
2023-05-08T11:39:25.993Z,31.16
2023-05-08T11:40:25.985Z,31.76
2023-05-08T11:41:26.131Z,31.13
2023-05-08T11:42:26.010Z,30.52
2023-05-08T11:43:25.972Z,29.42
2023-05-08T11:44:25.952Z,30.52
2023-05-08T11:45:25.917Z,30.62
2023-05-08T11:46:26.011Z,30.30
2023-05-08T11:47:25.958Z,29.77
2023-05-08T11:48:25.964Z,28.85
2023-05-08T11:49:29.024Z,29.86
2023-05-08T11:50:26.619Z,29.66
2023-05-08T11:51:25.856Z,30.27
2023-05-08T11:52:25.856Z,30.38
2023-05-08T11:53:25.839Z,30.47
2023-05-08T11:54:25.869Z,30.48
2023-05-08T11:55:25.840Z,30.97
2023-05-08T11:56:25.811Z,31.30
2023-05-08T11:57:25.786Z,31.49
2023-05-08T11:58:25.811Z,31.40
2023-05-08T11:59:25.775Z,31.62
2023-05-08T12:00:25.789Z,31.72
2023-05-08T12:01:25.779Z,31.72
2023-05-08T12:02:25.791Z,31.12
2023-05-08T12:03:26.085Z,32.01
2023-05-08T12:04:25.759Z,30.77
2023-05-08T12:05:25.707Z,29.63
2023-05-08T12:06:25.730Z,28.82
2023-05-08T12:07:25.720Z,28.41
2023-05-08T12:08:25.698Z,28.38
2023-05-08T12:09:25.683Z,28.16
2023-05-08T12:10:25.651Z,30.12
2023-05-08T12:11:25.651Z,29.22
2023-05-08T12:12:25.632Z,28.80
2023-05-08T12:13:25.783Z,28.50
2023-05-08T12:14:25.629Z,28.10
2023-05-08T12:15:25.613Z,28.30
2023-05-08T12:16:25.632Z,28.02
2023-05-08T12:17:25.783Z,28.42
2023-05-08T12:18:25.577Z,28.02
2023-05-08T12:19:25.561Z,27.70
2023-05-08T12:20:25.547Z,27.93
2023-05-08T12:21:25.526Z,28.02
2023-05-08T12:22:25.533Z,27.80
2023-05-08T12:23:25.515Z,28.30
2023-05-08T12:24:25.545Z,27.89
2023-05-08T12:25:25.491Z,27.67
2023-05-08T12:26:25.471Z,27.86
2023-05-08T12:27:25.493Z,27.76
2023-05-08T12:28:25.457Z,26.56
2023-05-08T12:29:25.497Z,27.15
2023-05-08T12:30:25.457Z,26.33
2023-05-08T12:31:25.490Z,26.73
2023-05-08T12:32:27.162Z,27.15
2023-05-08T12:33:25.393Z,27.95
2023-05-08T12:34:25.429Z,27.85
2023-05-08T12:35:25.401Z,27.33
2023-05-08T12:36:25.408Z,27.51
2023-05-08T12:37:25.360Z,26.08
2023-05-08T12:38:25.371Z,26.18
2023-05-08T12:39:25.341Z,28.08
2023-05-08T12:40:25.336Z,29.11
2023-05-08T12:41:25.336Z,28.99
2023-05-08T12:42:25.317Z,28.77
2023-05-08T12:43:25.297Z,27.55
2023-05-08T12:44:25.303Z,27.36
2023-05-08T12:45:25.273Z,28.29
2023-05-08T12:46:25.303Z,27.85
2023-05-08T12:47:25.265Z,26.22
2023-05-08T12:48:25.253Z,25.65
2023-05-08T12:49:25.267Z,25.73
2023-05-08T12:50:25.259Z,25.22
2023-05-08T12:51:25.208Z,25.01
2023-05-08T12:52:25.213Z,24.51
2023-05-08T12:53:25.178Z,24.69
2023-05-08T12:54:25.178Z,23.58
2023-05-08T12:55:25.165Z,23.87
2023-05-08T12:56:25.152Z,25.15
2023-05-08T12:57:25.135Z,26.39
2023-05-08T12:58:25.130Z,26.90
2023-05-08T12:59:25.356Z,26.35
2023-05-08T13:00:25.118Z,26.77
2023-05-08T13:01:25.146Z,26.56
2023-05-08T13:02:25.237Z,26.43
2023-05-08T13:03:25.153Z,26.22
2023-05-08T13:04:25.175Z,25.92
2023-05-08T13:05:25.068Z,26.32
2023-05-08T13:06:25.043Z,25.99
2023-05-08T13:07:25.044Z,25.59
2023-05-08T13:08:25.030Z,25.27
2023-05-08T13:09:25.015Z,24.98
2023-05-08T13:10:26.669Z,25.29
2023-05-08T13:11:24.990Z,25.81
2023-05-08T13:12:25.000Z,26.12
2023-05-08T13:13:25.082Z,27.81
2023-05-08T13:14:24.953Z,27.89
2023-05-08T13:15:24.972Z,27.69
2023-05-08T13:16:25.021Z,26.97
2023-05-08T13:17:24.965Z,25.92
2023-05-08T13:18:24.926Z,24.79
2023-05-08T13:19:24.921Z,24.92
2023-05-08T13:20:25.191Z,25.29
2023-05-08T13:21:27.241Z,24.47
2023-05-08T13:22:24.868Z,24.88
2023-05-08T13:23:24.857Z,26.43
2023-05-08T13:24:24.951Z,26.93
2023-05-08T13:25:24.844Z,26.31
2023-05-08T13:26:24.832Z,26.18
2023-05-08T13:27:24.823Z,25.37
2023-05-08T13:28:25.198Z,24.76
2023-05-08T13:29:24.807Z,24.75
2023-05-08T13:30:24.784Z,24.62
2023-05-08T13:31:24.840Z,23.68
2023-05-08T13:32:24.815Z,23.50
2023-05-08T13:33:24.792Z,24.14
2023-05-08T13:34:24.741Z,25.26
2023-05-08T13:35:24.822Z,24.86
2023-05-08T13:36:24.744Z,24.15
2023-05-08T13:37:24.718Z,24.45
2023-05-08T13:38:24.688Z,23.93
2023-05-08T13:39:24.698Z,23.30
2023-05-08T13:40:24.689Z,23.19
2023-05-08T13:41:24.691Z,22.18
2023-05-08T13:42:24.662Z,23.18
2023-05-08T13:43:24.707Z,22.39
2023-05-08T13:44:24.636Z,22.00
2023-05-08T13:45:24.630Z,23.71
2023-05-08T13:46:24.674Z,24.84
2023-05-08T13:47:24.613Z,24.21
2023-05-08T13:48:24.587Z,24.30
2023-05-08T13:49:24.578Z,24.19
2023-05-08T13:50:24.582Z,24.63
2023-05-08T13:51:24.583Z,25.02
2023-05-08T13:52:24.552Z,24.58
2023-05-08T13:53:24.558Z,23.76
2023-05-08T13:54:24.531Z,22.85
2023-05-08T13:55:24.546Z,22.53
2023-05-08T13:56:24.528Z,23.77
2023-05-08T13:57:24.504Z,24.67
2023-05-08T13:58:24.482Z,23.36
2023-05-08T13:59:24.493Z,22.94
2023-05-08T14:00:26.600Z,22.13
2023-05-08T14:01:27.014Z,22.95
2023-05-08T14:02:24.582Z,23.15
2023-05-08T14:03:24.574Z,23.23
2023-05-08T14:04:24.470Z,22.81
2023-05-08T14:05:24.559Z,22.29
2023-05-08T14:06:24.401Z,22.11
2023-05-08T14:07:24.412Z,22.62
2023-05-08T14:08:24.419Z,23.12
2023-05-08T14:09:24.393Z,22.10
2023-05-08T14:10:24.367Z,21.79
2023-05-08T14:11:24.367Z,21.88
2023-05-08T14:12:24.370Z,22.10
2023-05-08T14:13:24.398Z,22.71
2023-05-08T14:14:24.315Z,22.93
2023-05-08T14:15:29.187Z,23.22
2023-05-08T14:16:24.355Z,23.54
2023-05-08T14:17:24.345Z,23.43
2023-05-08T14:18:24.294Z,21.80
2023-05-08T14:19:24.286Z,21.89
2023-05-08T14:20:24.263Z,21.60
2023-05-08T14:21:24.275Z,21.30
2023-05-08T14:22:24.267Z,21.81
2023-05-08T14:23:24.231Z,21.91
2023-05-08T14:24:24.210Z,23.46
2023-05-08T14:25:24.209Z,22.95
2023-05-08T14:26:24.213Z,21.93
2023-05-08T14:27:24.216Z,21.82
2023-05-08T14:28:24.198Z,22.86
2023-05-08T14:29:24.183Z,23.57
2023-05-08T14:30:24.157Z,24.71
2023-05-08T14:31:24.226Z,25.45
2023-05-08T14:32:24.196Z,26.57
2023-05-08T14:33:24.134Z,26.56
2023-05-08T14:34:24.108Z,25.32
2023-05-08T14:35:24.120Z,24.19
2023-05-08T14:36:24.092Z,23.68
2023-05-08T14:37:24.150Z,23.15
2023-05-08T14:38:24.179Z,22.65
2023-05-08T14:39:24.130Z,23.07
2023-05-08T14:40:24.674Z,22.85
2023-05-08T14:41:24.054Z,22.63
2023-05-08T14:42:24.351Z,22.94
2023-05-08T14:43:24.125Z,23.33
2023-05-08T14:44:24.023Z,22.80
2023-05-08T14:45:24.004Z,21.99
2023-05-08T14:46:24.062Z,22.09
2023-05-08T14:47:24.026Z,22.61
2023-05-08T14:48:24.004Z,24.25
2023-05-08T15:11:26.523Z,24.55
2023-05-08T15:11:31.980Z,24.12
2023-05-08T15:12:31.957Z,24.21
2023-05-08T15:13:32.085Z,23.30
2023-05-08T15:14:31.954Z,23.19
2023-05-08T15:15:31.944Z,24.41
2023-05-08T15:16:32.039Z,23.68
2023-05-08T15:17:31.933Z,23.46
2023-05-08T15:18:31.886Z,23.25
2023-05-08T15:19:31.966Z,23.05
2023-05-08T15:20:31.879Z,23.14
2023-05-08T15:21:31.864Z,22.63
2023-05-08T15:22:31.937Z,22.65
2023-05-08T15:23:31.863Z,24.19
2023-05-08T15:24:31.851Z,24.30
2023-05-08T15:25:31.835Z,23.57
2023-05-08T15:26:31.805Z,23.15
2023-05-08T15:27:31.823Z,22.94
2023-05-08T15:28:31.791Z,22.95
2023-05-08T15:29:31.798Z,22.93
2023-05-08T15:30:31.783Z,22.13
2023-05-08T15:31:31.808Z,22.52
2023-05-08T15:32:31.788Z,22.44
2023-05-08T15:33:31.735Z,23.46
2023-05-08T15:34:33.006Z,23.65
2023-05-08T15:35:31.717Z,23.12
2023-05-08T15:36:31.713Z,22.41
2023-05-08T15:37:31.696Z,22.92
2023-05-08T15:38:31.705Z,24.90
2023-05-08T15:39:31.683Z,25.70
2023-05-08T15:40:31.662Z,25.17
2023-05-08T15:41:31.652Z,24.24
2023-05-08T15:42:31.647Z,23.49
2023-05-08T15:43:31.640Z,22.47
2023-05-08T15:44:52.662Z,21.55
2023-05-08T15:45:31.665Z,21.15
2023-05-08T15:46:31.649Z,21.78
2023-05-08T15:47:31.758Z,22.40
2023-05-08T15:48:31.583Z,22.59
2023-05-08T15:49:31.579Z,22.38
2023-05-08T15:50:31.582Z,22.28
2023-05-08T15:51:31.573Z,22.27
2023-05-08T15:52:31.540Z,23.10
2023-05-08T15:53:31.546Z,22.80
2023-05-08T15:54:31.534Z,22.70
2023-05-08T15:55:31.514Z,23.33
2023-05-08T15:56:31.494Z,24.15
2023-05-08T15:57:31.513Z,24.79
2023-05-08T15:58:31.522Z,25.61
2023-05-08T15:59:31.515Z,24.49
2023-05-08T16:00:43.945Z,23.97
2023-05-08T16:01:31.563Z,24.07
2023-05-08T16:02:31.585Z,24.18
2023-05-08T16:03:31.569Z,24.37
2023-05-08T16:04:31.426Z,24.05
2023-05-08T16:05:31.432Z,23.77
2023-05-08T16:06:31.427Z,25.02
2023-05-08T16:07:31.406Z,26.04
2023-05-08T16:08:31.395Z,26.89
2023-05-08T16:09:31.385Z,27.93
2023-05-08T16:10:31.361Z,27.70
2023-05-08T16:11:31.347Z,26.75
2023-05-08T16:12:31.849Z,26.41
2023-05-08T16:13:31.364Z,26.23
2023-05-08T16:14:31.319Z,26.66
2023-05-08T16:15:31.339Z,26.34
2023-05-08T16:16:31.368Z,25.73
2023-05-08T16:17:31.386Z,24.82
2023-05-08T16:18:31.312Z,25.03
2023-05-08T16:19:31.472Z,25.04
2023-05-08T16:20:33.354Z,25.34
2023-05-08T16:21:31.258Z,24.32
2023-05-08T16:22:31.995Z,24.42
2023-05-08T16:23:31.219Z,24.62
2023-05-08T16:24:31.225Z,24.33
2023-05-08T16:25:31.328Z,25.08
2023-05-08T16:26:31.181Z,26.29
2023-05-08T16:27:31.219Z,26.18
2023-05-08T16:28:31.175Z,25.87
2023-05-08T16:29:31.155Z,26.07
2023-05-08T16:30:31.470Z,25.84
2023-05-08T16:31:31.171Z,25.54
2023-05-08T16:32:31.145Z,25.96
2023-05-08T16:33:31.113Z,26.68
2023-05-08T16:34:31.129Z,26.70
2023-05-08T16:35:31.218Z,26.39
2023-05-08T16:36:31.105Z,26.27
2023-05-08T16:37:31.086Z,26.07
2023-05-08T16:38:31.068Z,25.85
2023-05-08T16:39:31.071Z,25.85
2023-05-08T16:40:31.062Z,26.60
2023-05-08T16:41:31.045Z,27.41
2023-05-08T16:42:31.022Z,28.57
2023-05-08T16:43:31.019Z,29.71
2023-05-08T16:44:31.018Z,30.43
2023-05-08T16:45:30.999Z,30.73
2023-05-08T16:46:31.112Z,30.51
2023-05-08T16:47:30.989Z,30.91
2023-05-08T16:48:30.952Z,31.02
2023-05-08T16:49:30.956Z,31.12
2023-05-08T16:50:30.952Z,31.02
2023-05-08T16:51:30.949Z,31.22
2023-05-08T16:52:30.913Z,31.22
2023-05-08T16:53:30.906Z,31.42
2023-05-08T16:54:30.893Z,31.42
2023-05-08T16:55:30.903Z,31.52
2023-05-08T16:56:30.899Z,33.13
2023-05-08T16:57:30.887Z,32.34
2023-05-08T16:58:30.851Z,32.64
2023-05-08T16:59:30.861Z,31.43
2023-05-08T17:00:30.839Z,30.93
2023-05-08T17:01:30.890Z,31.03
2023-05-08T17:02:30.885Z,30.84
2023-05-08T17:03:30.872Z,30.34
2023-05-08T17:04:31.012Z,30.55
2023-05-08T17:05:30.807Z,31.06
2023-05-08T17:06:30.782Z,31.36
2023-05-08T17:07:30.887Z,31.36
2023-05-08T17:08:30.723Z,31.46
2023-05-08T17:09:30.742Z,31.46
2023-05-08T17:10:30.741Z,31.45
2023-05-08T17:11:30.920Z,31.95
2023-05-08T17:12:30.733Z,31.56
2023-05-08T17:13:30.788Z,31.96